createdAt,value
2019-01-28T00:02:03.838Z,98023.00
2019-01-28T00:04:34.283Z,98018.00
2019-01-28T00:07:04.616Z,98015.00
2019-01-28T00:09:34.920Z,98014.00
2019-01-28T00:12:05.290Z,98016.00
2019-01-28T00:14:35.766Z,98016.00
2019-01-28T00:17:08.494Z,98017.00
2019-01-28T00:19:37.974Z,98034.00
2019-01-28T00:22:08.478Z,98035.00
2019-01-28T00:24:38.800Z,98040.00
2019-01-28T00:27:09.124Z,98033.00
2019-01-28T00:29:39.424Z,98039.00
2019-01-28T00:32:09.979Z,98035.00
2019-01-28T00:34:40.226Z,98028.00
2019-01-28T00:37:10.466Z,98024.00
2019-01-28T00:39:40.876Z,98031.00
2019-01-28T00:42:11.267Z,98029.00
2019-01-28T00:44:41.680Z,98026.00
2019-01-28T00:47:12.609Z,98033.00
2019-01-28T00:49:43.176Z,98038.00
2019-01-28T00:52:13.426Z,98033.00
2019-01-28T00:54:45.431Z,98035.00
2019-01-28T00:57:15.863Z,98038.00
2019-01-28T00:59:46.157Z,98026.00
2019-01-28T01:02:18.673Z,98041.00
2019-01-28T01:04:49.010Z,98040.00
2019-01-28T01:07:20.637Z,98043.00
2019-01-28T01:09:50.838Z,98041.00
2019-01-28T01:12:21.216Z,98051.00
2019-01-28T01:14:51.588Z,98035.00
2019-01-28T01:17:21.991Z,98043.00
2019-01-28T01:19:52.538Z,98049.00
2019-01-28T01:22:23.088Z,98053.00
2019-01-28T01:24:53.392Z,98044.00
2019-01-28T01:27:23.780Z,98051.00
2019-01-28T01:29:56.436Z,98058.00
2019-01-28T01:32:26.836Z,98066.00
2019-01-28T01:34:57.442Z,98060.00
2019-01-28T01:37:27.770Z,98068.00
2019-01-28T01:39:58.128Z,98073.00
2019-01-28T01:42:28.618Z,98060.00
2019-01-28T01:45:01.462Z,98067.00
2019-01-28T01:47:32.000Z,98063.00
2019-01-28T01:50:02.324Z,98070.00
2019-01-28T01:52:32.750Z,98071.00
2019-01-28T01:55:03.172Z,98065.00
2019-01-28T01:57:33.526Z,98061.00
2019-01-28T02:00:06.800Z,98057.00
2019-01-28T02:02:37.210Z,98061.00
2019-01-28T02:05:07.769Z,98051.00
2019-01-28T02:07:41.211Z,98058.00
2019-01-28T02:10:13.983Z,98056.00
2019-01-28T02:12:44.404Z,98053.00
2019-01-28T02:15:19.204Z,98054.00
2019-01-28T02:17:49.599Z,98064.00
2019-01-28T02:20:19.954Z,98050.00
2019-01-28T02:22:52.446Z,98053.00
2019-01-28T02:25:22.832Z,98045.00
2019-01-28T02:27:53.178Z,98045.00
2019-01-28T02:30:23.514Z,98047.00
2019-01-28T02:32:53.948Z,98039.00
2019-01-28T02:35:24.339Z,98040.00
2019-01-28T02:37:54.568Z,98038.00
2019-01-28T02:40:24.908Z,98037.00
2019-01-28T02:42:55.372Z,98035.00
2019-01-28T02:45:25.818Z,98038.00
2019-01-28T02:47:56.086Z,98042.00
2019-01-28T02:50:26.536Z,98041.00
2019-01-28T02:52:56.947Z,98036.00
2019-01-28T02:55:27.247Z,98043.00
2019-01-28T02:57:57.532Z,98042.00
2019-01-28T03:00:27.987Z,98032.00
2019-01-28T03:02:58.382Z,98033.00
2019-01-28T03:05:28.815Z,98035.00
2019-01-28T03:07:59.243Z,98032.00
2019-01-28T03:10:29.821Z,98031.00
2019-01-28T03:13:00.103Z,98039.00
2019-01-28T03:15:34.097Z,98038.00
2019-01-28T03:18:04.703Z,98037.00
2019-01-28T03:20:37.885Z,98029.00
2019-01-28T03:23:10.045Z,98018.00
2019-01-28T03:25:41.680Z,98028.00
2019-01-28T03:28:12.096Z,98021.00
2019-01-28T03:30:43.059Z,98021.00
2019-01-28T03:33:13.392Z,98023.00
2019-01-28T03:35:43.749Z,98023.00
2019-01-28T03:38:14.099Z,98031.00
2019-01-28T03:40:44.429Z,98025.00
2019-01-28T03:43:14.728Z,98021.00
2019-01-28T03:45:45.200Z,98018.00
2019-01-28T03:48:16.801Z,98018.00
2019-01-28T03:50:47.436Z,98025.00
2019-01-28T03:53:17.907Z,98014.00
2019-01-28T03:55:48.364Z,98022.00
2019-01-28T03:58:18.963Z,98023.00
2019-01-28T04:00:49.456Z,98023.00
2019-01-28T04:03:19.837Z,98032.00
2019-01-28T04:05:50.126Z,98006.00
2019-01-28T04:08:20.466Z,98014.00
2019-01-28T04:10:50.771Z,98011.00
2019-01-28T04:13:21.139Z,98022.00
2019-01-28T04:15:51.567Z,98007.00
2019-01-28T04:18:21.934Z,97998.00
2019-01-28T04:20:52.259Z,98007.00
2019-01-28T04:23:24.113Z,97999.00
2019-01-28T04:25:54.720Z,98003.00
2019-01-28T04:28:26.681Z,97989.00
2019-01-28T04:30:57.029Z,98000.00
2019-01-28T04:33:29.423Z,97996.00
2019-01-28T04:35:59.827Z,97988.00
2019-01-28T04:38:30.101Z,97981.00
2019-01-28T04:41:00.357Z,97972.00
2019-01-28T04:43:30.683Z,97973.00
2019-01-28T04:46:01.028Z,97970.00
2019-01-28T04:48:31.454Z,97980.00
2019-01-28T04:51:01.717Z,97969.00
2019-01-28T04:53:32.137Z,97982.00
2019-01-28T04:56:05.163Z,97972.00
2019-01-28T04:58:35.630Z,97974.00
2019-01-28T05:01:06.031Z,97966.00
2019-01-28T05:03:36.339Z,97966.00
2019-01-28T05:06:06.783Z,97969.00
2019-01-28T05:08:37.159Z,97981.00
2019-01-28T05:11:07.597Z,97976.00
2019-01-28T05:13:37.941Z,97971.00
2019-01-28T05:16:08.447Z,97968.00
2019-01-28T05:18:39.067Z,97962.00
2019-01-28T05:21:09.491Z,97965.00
2019-01-28T05:23:39.845Z,97962.00
2019-01-28T05:26:10.197Z,97968.00
2019-01-28T05:28:40.604Z,97968.00
2019-01-28T05:31:13.493Z,97963.00
2019-01-28T05:33:44.085Z,97948.00
2019-01-28T05:36:14.629Z,97956.00
2019-01-28T05:38:46.136Z,97956.00
2019-01-28T05:41:16.338Z,97940.00
2019-01-28T05:43:46.627Z,97947.00
2019-01-28T05:46:16.959Z,97943.00
2019-01-28T05:48:48.465Z,97956.00
2019-01-28T05:51:21.373Z,97951.00
2019-01-28T05:53:51.581Z,97948.00
2019-01-28T05:56:21.956Z,97957.00
2019-01-28T05:58:52.266Z,97947.00
2019-01-28T06:01:22.641Z,97950.00
2019-01-28T06:03:52.936Z,97943.00
2019-01-28T06:06:23.326Z,97945.00
2019-01-28T06:08:53.739Z,97955.00
2019-01-28T06:11:31.924Z,97956.00
2019-01-28T06:14:02.775Z,97964.00
2019-01-28T06:16:33.004Z,97949.00
2019-01-28T06:19:03.148Z,97947.00
2019-01-28T06:21:33.500Z,97939.00
2019-01-28T06:24:03.763Z,97967.00
2019-01-28T06:26:34.043Z,97953.00
2019-01-28T06:29:05.429Z,97954.00
2019-01-28T06:31:35.674Z,97963.00
2019-01-28T06:34:06.054Z,97956.00
2019-01-28T06:36:36.284Z,97971.00
2019-01-28T06:39:09.963Z,97962.00
2019-01-28T06:41:40.146Z,97959.00
2019-01-28T06:44:10.216Z,97955.00
2019-01-28T06:46:40.323Z,97964.00
2019-01-28T06:49:10.567Z,97958.00
2019-01-28T06:51:40.850Z,97954.00
2019-01-28T06:54:12.261Z,97959.00
2019-01-28T06:56:42.566Z,97954.00
2019-01-28T06:59:12.930Z,97963.00
2019-01-28T07:01:43.235Z,97960.00
2019-01-28T07:04:13.392Z,97961.00
2019-01-28T07:06:43.710Z,97961.00
2019-01-28T07:09:14.252Z,97967.00
2019-01-28T07:11:46.054Z,97971.00
2019-01-28T07:14:17.486Z,97976.00
2019-01-28T07:16:48.909Z,97976.00
2019-01-28T07:19:22.261Z,97978.00
2019-01-28T07:21:53.322Z,97984.00
2019-01-28T07:24:24.145Z,97968.00
2019-01-28T07:26:55.207Z,97980.00
2019-01-28T07:29:28.048Z,97978.00
2019-01-28T07:32:00.114Z,97980.00
2019-01-28T07:34:31.272Z,97975.00
2019-01-28T07:37:01.923Z,97983.00
2019-01-28T07:39:32.601Z,97985.00
2019-01-28T07:42:03.269Z,97984.00
2019-01-28T07:44:33.862Z,97990.00
2019-01-28T07:47:04.706Z,97986.00
2019-01-28T07:49:35.440Z,97995.00
2019-01-28T07:52:06.485Z,97987.00
2019-01-28T07:54:37.299Z,97988.00
2019-01-28T07:57:07.984Z,97994.00
2019-01-28T07:59:38.824Z,97992.00
2019-01-28T08:02:09.130Z,97998.00
2019-01-28T08:04:40.248Z,97996.00
2019-01-28T08:07:11.123Z,98007.00
2019-01-28T08:09:41.718Z,98005.00
2019-01-28T08:12:12.574Z,97999.00
2019-01-28T08:14:43.476Z,97999.00
2019-01-28T08:17:16.002Z,97992.00
2019-01-28T08:19:49.693Z,98003.00
2019-01-28T08:22:20.371Z,97994.00
2019-01-28T08:24:51.012Z,97999.00
2019-01-28T08:27:21.757Z,97990.00
2019-01-28T08:29:52.730Z,97992.00
2019-01-28T08:32:23.794Z,98005.00
2019-01-28T08:34:57.630Z,98004.00
2019-01-28T08:37:30.932Z,98004.00
2019-01-28T08:40:01.725Z,98004.00
2019-01-28T08:42:32.714Z,98004.00
2019-01-28T08:45:04.594Z,98000.00
2019-01-28T08:47:38.873Z,98011.00
2019-01-28T08:50:10.356Z,98010.00
2019-01-28T08:52:40.980Z,98049.00
2019-01-28T08:55:14.732Z,98014.00
2019-01-28T08:57:45.562Z,98024.00
2019-01-28T09:00:30.739Z,98011.00
2019-01-28T09:03:01.718Z,98018.00
2019-01-28T09:05:32.776Z,98025.00
2019-01-28T09:08:03.462Z,98022.00
2019-01-28T09:10:35.480Z,98022.00
2019-01-28T09:13:07.947Z,98022.00
2019-01-28T09:15:38.834Z,98023.00
2019-01-28T09:18:10.834Z,98037.00
2019-01-28T09:20:41.400Z,98030.00
2019-01-28T09:23:11.940Z,98030.00
2019-01-28T09:25:42.646Z,98038.00
2019-01-28T09:28:13.228Z,98031.00
2019-01-28T09:30:43.772Z,98037.00
2019-01-28T09:33:17.165Z,98034.00
2019-01-28T09:35:47.720Z,98044.00
2019-01-28T09:38:18.322Z,98043.00
2019-01-28T09:40:48.746Z,98037.00
2019-01-28T09:43:19.352Z,98048.00
2019-01-28T09:45:50.043Z,98051.00
2019-01-28T09:48:21.292Z,98043.00
2019-01-28T09:50:52.088Z,98042.00
2019-01-28T09:53:22.868Z,98049.00
2019-01-28T09:55:55.608Z,98050.00
2019-01-28T09:58:26.951Z,98047.00
2019-01-28T10:00:59.106Z,98054.00
2019-01-28T10:03:29.742Z,98058.00
2019-01-28T10:06:00.408Z,98049.00
2019-01-28T10:08:31.140Z,98053.00
2019-01-28T10:11:01.520Z,98056.00
2019-01-28T10:13:32.218Z,98059.00
2019-01-28T10:16:02.868Z,98061.00
2019-01-28T10:18:33.856Z,98059.00
2019-01-28T10:21:05.251Z,98067.00
2019-01-28T10:23:38.295Z,98068.00
2019-01-28T10:26:08.891Z,98059.00
2019-01-28T10:28:39.734Z,98057.00
2019-01-28T10:31:10.788Z,98071.00
2019-01-28T10:33:41.274Z,98061.00
2019-01-28T10:36:11.823Z,98060.00
2019-01-28T10:38:42.566Z,98071.00
2019-01-28T10:41:13.207Z,98061.00
2019-01-28T10:43:44.109Z,98064.00
2019-01-28T10:46:15.763Z,98064.00
2019-01-28T10:48:49.752Z,98073.00
2019-01-28T10:51:18.672Z,98070.00
2019-01-28T10:53:49.447Z,98076.00
2019-01-28T10:56:19.986Z,98077.00
2019-01-28T10:58:51.289Z,98070.00
2019-01-28T11:01:21.988Z,98068.00
2019-01-28T11:03:53.047Z,98066.00
2019-01-28T11:06:26.347Z,98069.00
2019-01-28T11:08:57.205Z,98073.00
2019-01-28T11:11:27.878Z,98070.00
2019-01-28T11:13:58.966Z,98066.00
2019-01-28T11:16:29.752Z,98063.00
2019-01-28T11:19:00.840Z,98069.00
2019-01-28T11:21:31.626Z,98062.00
2019-01-28T11:24:02.935Z,98063.00
2019-01-28T11:26:34.460Z,98076.00
2019-01-28T11:29:07.058Z,98079.00
2019-01-28T11:31:37.746Z,98075.00
2019-01-28T11:34:08.805Z,98077.00
2019-01-28T11:36:39.557Z,98075.00
2019-01-28T11:39:12.121Z,98086.00
2019-01-28T11:41:43.155Z,98077.00
2019-01-28T11:44:16.587Z,98094.00
2019-01-28T11:46:47.336Z,98095.00
2019-01-28T11:49:17.996Z,98109.00
2019-01-28T11:51:48.471Z,98106.00
2019-01-28T11:54:19.371Z,98090.00
2019-01-28T11:56:49.917Z,98108.00
2019-01-28T11:59:20.599Z,98108.00
2019-01-28T12:01:51.365Z,98113.00
2019-01-28T12:04:21.821Z,98116.00
2019-01-28T12:06:52.341Z,98116.00
2019-01-28T12:09:22.949Z,98113.00
2019-01-28T12:11:53.276Z,98117.00
2019-01-28T12:14:23.762Z,98113.00
2019-01-28T12:16:54.403Z,98117.00
2019-01-28T12:19:25.127Z,98117.00
2019-01-28T12:21:55.795Z,98135.00
2019-01-28T12:24:26.233Z,98132.00
2019-01-28T12:26:57.864Z,98134.00
2019-01-28T12:29:28.824Z,98137.00
2019-01-28T12:32:02.281Z,98142.00
2019-01-28T12:34:32.889Z,98144.00
2019-01-28T12:37:03.570Z,98155.00
2019-01-28T12:39:34.273Z,98159.00
2019-01-28T12:42:05.824Z,98144.00
2019-01-28T12:44:36.319Z,98145.00
2019-01-28T12:47:06.913Z,98155.00
2019-01-28T12:49:37.616Z,98159.00
2019-01-28T12:52:08.203Z,98165.00
2019-01-28T12:54:38.785Z,98156.00
2019-01-28T12:57:09.356Z,98169.00
2019-01-28T12:59:40.135Z,98170.00
2019-01-28T13:02:10.839Z,98171.00
2019-01-28T13:04:42.301Z,98181.00
2019-01-28T13:07:13.601Z,98191.00
2019-01-28T13:09:44.391Z,98197.00
2019-01-28T13:12:15.243Z,98194.00
2019-01-28T13:14:47.717Z,98193.00
2019-01-28T13:17:19.415Z,98203.00
2019-01-28T13:19:50.239Z,98205.00
2019-01-28T13:22:20.991Z,98217.00
2019-01-28T13:24:51.587Z,98219.00
2019-01-28T13:27:22.774Z,98215.00
2019-01-28T13:29:53.553Z,98225.00
2019-01-28T13:32:23.947Z,98223.00
2019-01-28T13:34:54.334Z,98227.00
2019-01-28T13:37:26.434Z,98236.00
2019-01-28T13:39:57.114Z,98238.00
2019-01-28T13:42:27.639Z,98237.00
2019-01-28T13:44:58.726Z,98251.00
2019-01-28T13:47:29.303Z,98257.00
2019-01-28T13:49:59.795Z,98256.00
2019-01-28T13:52:31.597Z,98257.00
2019-01-28T13:55:01.966Z,98267.00
2019-01-28T13:57:32.498Z,98261.00
2019-01-28T14:00:03.394Z,98271.00
2019-01-28T14:02:33.942Z,98271.00
2019-01-28T14:05:05.117Z,98272.00
2019-01-28T14:07:35.569Z,98282.00
2019-01-28T14:10:07.564Z,98294.00
2019-01-28T14:12:38.040Z,98294.00
2019-01-28T14:15:12.379Z,98297.00
2019-01-28T14:17:43.022Z,98300.00
2019-01-28T14:20:15.454Z,98313.00
2019-01-28T14:22:45.986Z,98322.00
2019-01-28T14:25:16.942Z,98322.00
2019-01-28T14:27:49.647Z,98338.00
2019-01-28T14:30:23.857Z,98336.00
2019-01-28T14:32:54.238Z,98335.00
2019-01-28T14:35:25.001Z,98343.00
2019-01-28T14:37:55.613Z,98341.00
2019-01-28T14:40:26.268Z,98351.00
2019-01-28T14:42:56.741Z,98337.00
2019-01-28T14:45:27.256Z,98353.00
2019-01-28T14:47:58.760Z,98354.00
2019-01-28T14:50:30.894Z,98367.00
2019-01-28T14:53:01.377Z,98363.00
2019-01-28T14:55:31.982Z,98368.00
2019-01-28T14:58:02.630Z,98371.00
2019-01-28T15:00:35.598Z,98377.00
2019-01-28T15:03:06.323Z,98393.00
2019-01-28T15:05:36.888Z,98395.00
2019-01-28T15:08:07.568Z,98386.00
2019-01-28T15:10:38.040Z,98388.00
2019-01-28T15:13:08.725Z,98386.00
2019-01-28T15:15:40.091Z,98396.00
2019-01-28T15:18:13.334Z,98404.00
2019-01-28T15:20:43.834Z,98410.00
2019-01-28T15:23:14.459Z,98416.00
2019-01-28T15:25:45.420Z,98412.00
2019-01-28T15:28:16.104Z,98419.00
2019-01-28T15:30:46.849Z,98425.00
2019-01-28T15:33:17.323Z,98422.00
2019-01-28T15:35:47.998Z,98423.00
2019-01-28T15:38:18.433Z,98442.00
2019-01-28T15:40:48.743Z,98437.00
2019-01-28T15:43:19.213Z,98445.00
2019-01-28T15:45:49.468Z,98441.00
2019-01-28T15:48:19.846Z,98452.00
2019-01-28T15:50:50.175Z,98451.00
2019-01-28T15:53:20.468Z,98454.00
2019-01-28T15:55:50.738Z,98458.00
2019-01-28T15:58:20.981Z,98467.00
2019-01-28T16:00:51.190Z,98475.00
2019-01-28T16:03:21.955Z,98475.00
2019-01-28T16:05:52.177Z,98477.00
2019-01-28T16:08:23.532Z,98488.00
2019-01-28T16:10:55.332Z,98483.00
2019-01-28T16:13:25.536Z,98492.00
2019-01-28T16:15:55.784Z,98490.00
2019-01-28T16:18:33.961Z,98494.00
2019-01-28T16:20:57.794Z,98504.00
2019-01-28T16:23:27.894Z,98508.00
2019-01-28T16:25:58.176Z,98506.00
2019-01-28T16:28:28.387Z,98517.00
2019-01-28T16:30:58.602Z,98522.00
2019-01-28T16:33:28.854Z,98519.00
2019-01-28T16:35:59.108Z,98519.00
2019-01-28T16:38:29.469Z,98529.00
2019-01-28T16:40:59.647Z,98536.00
2019-01-28T16:43:30.160Z,98534.00
2019-01-28T16:46:00.434Z,98544.00
2019-01-28T16:48:30.676Z,98542.00
2019-01-28T16:51:01.075Z,98534.00
2019-01-28T16:53:31.310Z,98554.00
2019-01-28T16:56:01.638Z,98558.00
2019-01-28T16:58:31.935Z,98558.00
2019-01-28T17:01:02.186Z,98568.00
2019-01-28T17:03:32.542Z,98581.00
2019-01-28T17:06:03.022Z,98583.00
2019-01-28T17:08:33.366Z,98571.00
2019-01-28T17:11:03.633Z,98582.00
2019-01-28T17:13:33.926Z,98581.00
2019-01-28T17:16:04.596Z,98594.00
2019-01-28T17:18:34.835Z,98593.00
2019-01-28T17:21:05.189Z,98591.00
2019-01-28T17:23:35.402Z,98604.00
2019-01-28T17:26:05.690Z,98609.00
2019-01-28T17:28:35.873Z,98617.00
2019-01-28T17:31:07.071Z,98624.00
2019-01-28T17:33:39.063Z,98624.00
2019-01-28T17:36:09.277Z,98633.00
2019-01-28T17:38:39.565Z,98642.00
2019-01-28T17:41:16.182Z,98649.00
2019-01-28T17:43:46.766Z,98660.00
2019-01-28T17:46:17.095Z,98671.00
2019-01-28T17:48:47.446Z,98665.00
2019-01-28T17:51:17.802Z,98674.00
2019-01-28T17:53:48.162Z,98688.00
2019-01-28T17:56:18.447Z,98691.00
2019-01-28T17:58:49.732Z,98638.00
2019-01-28T18:01:20.155Z,98701.00
2019-01-28T18:03:50.438Z,98718.00
2019-01-28T18:06:24.776Z,98726.00
2019-01-28T18:08:54.973Z,98722.00
2019-01-28T18:11:25.321Z,98723.00
2019-01-28T18:13:57.019Z,98731.00
2019-01-28T18:16:27.256Z,98738.00
2019-01-28T18:18:57.615Z,98739.00
2019-01-28T18:21:27.947Z,98755.00
2019-01-28T18:23:58.474Z,98753.00
2019-01-28T18:26:28.802Z,98757.00
2019-01-28T18:28:59.325Z,98776.00
2019-01-28T18:31:29.777Z,98774.00
2019-01-28T18:34:00.289Z,98783.00
2019-01-28T18:36:30.803Z,98784.00
2019-01-28T18:39:01.079Z,98806.00
2019-01-28T18:41:34.382Z,98792.00
2019-01-28T18:44:05.151Z,98804.00
2019-01-28T18:46:35.497Z,98804.00
2019-01-28T18:49:09.655Z,98815.00
2019-01-28T18:51:40.013Z,98801.00
2019-01-28T18:54:10.787Z,98818.00
2019-01-28T18:56:41.139Z,98838.00
2019-01-28T18:59:12.579Z,98837.00
2019-01-28T19:01:43.430Z,98851.00
2019-01-28T19:04:13.868Z,98845.00
2019-01-28T19:06:52.876Z,98847.00
2019-01-28T19:09:34.275Z,98863.00
2019-01-28T19:12:17.887Z,98888.00
2019-01-28T19:15:13.721Z,98881.00
2019-01-28T19:17:58.049Z,98881.00
2019-01-28T19:20:43.042Z,98886.00
2019-01-28T19:23:13.432Z,98891.00
2019-01-28T19:25:46.695Z,98905.00
2019-01-28T19:28:17.183Z,98913.00
2019-01-28T19:30:47.743Z,98919.00
2019-01-28T19:33:24.590Z,98925.00
2019-01-28T19:35:55.337Z,98937.00
2019-01-28T19:38:26.063Z,98938.00
2019-01-28T19:40:56.419Z,98944.00
2019-01-28T19:43:26.782Z,98947.00
2019-01-28T19:45:57.285Z,98954.00
2019-01-28T19:48:27.619Z,98958.00
2019-01-28T19:50:58.063Z,98967.00
2019-01-28T19:53:28.577Z,98980.00
2019-01-28T19:55:59.051Z,98984.00
2019-01-28T19:58:29.557Z,98986.00
2019-01-28T20:00:59.983Z,98988.00
2019-01-28T20:03:30.428Z,99001.00
2019-01-28T20:06:00.813Z,99007.00
2019-01-28T20:08:31.203Z,99014.00
2019-01-28T20:11:01.531Z,99003.00
2019-01-28T20:13:31.867Z,99010.00
2019-01-28T20:16:02.473Z,99017.00
2019-01-28T20:18:32.967Z,99032.00
2019-01-28T20:21:05.242Z,99031.00
2019-01-28T20:23:36.024Z,99031.00
2019-01-28T20:26:06.339Z,99038.00
2019-01-28T20:28:36.695Z,99048.00
2019-01-28T20:31:08.257Z,99041.00
2019-01-28T20:33:41.495Z,99056.00
2019-01-28T20:36:11.951Z,99058.00
2019-01-28T20:38:42.289Z,99063.00
2019-01-28T20:41:12.839Z,99069.00
2019-01-28T20:43:43.339Z,99078.00
2019-01-28T20:46:16.863Z,99094.00
2019-01-28T20:48:47.143Z,99097.00
2019-01-28T20:51:18.772Z,99097.00
2019-01-28T20:53:49.312Z,99106.00
2019-01-28T20:56:19.758Z,99106.00
2019-01-28T20:58:50.191Z,99115.00
2019-01-28T21:01:20.698Z,99110.00
2019-01-28T21:03:51.061Z,99117.00
2019-01-28T21:06:21.451Z,99124.00
2019-01-28T21:08:52.883Z,99125.00
2019-01-28T21:11:23.559Z,99148.00
2019-01-28T21:13:53.895Z,99131.00
2019-01-28T21:16:24.369Z,99134.00
2019-01-28T21:18:54.755Z,99086.00
2019-01-28T21:21:25.070Z,99138.00
2019-01-28T21:23:55.463Z,99137.00
2019-01-28T21:26:26.095Z,99140.00
2019-01-28T21:28:56.535Z,99143.00
2019-01-28T21:31:27.117Z,99156.00
2019-01-28T21:33:57.683Z,99149.00
2019-01-28T21:36:45.621Z,99156.00
2019-01-28T21:39:16.879Z,99167.00
2019-01-28T21:41:47.284Z,99172.00
2019-01-28T21:44:17.716Z,99182.00
2019-01-28T21:46:48.953Z,99169.00
2019-01-28T21:49:19.402Z,99172.00
2019-01-28T21:51:50.879Z,99182.00
2019-01-28T21:54:21.275Z,99184.00
2019-01-28T21:56:51.714Z,99178.00
2019-01-28T21:59:22.052Z,99187.00
2019-01-28T22:01:53.590Z,99203.00
2019-01-28T22:04:23.938Z,99207.00
2019-01-28T22:06:54.468Z,99209.00
2019-01-28T22:09:24.884Z,99214.00
2019-01-28T22:11:55.200Z,99210.00
2019-01-28T22:14:25.519Z,99207.00
2019-01-28T22:16:55.960Z,99219.00
2019-01-28T22:19:26.254Z,99227.00
2019-01-28T22:21:59.284Z,99226.00
2019-01-28T22:24:28.629Z,99233.00
2019-01-28T22:26:58.955Z,99231.00
2019-01-28T22:29:29.436Z,99227.00
2019-01-28T22:32:00.141Z,99245.00
2019-01-28T22:34:30.817Z,99241.00
2019-01-28T22:37:01.280Z,99248.00
2019-01-28T22:39:31.590Z,99246.00
2019-01-28T22:42:01.944Z,99247.00
2019-01-28T22:44:33.634Z,99263.00
2019-01-28T22:47:03.968Z,99251.00
2019-01-28T22:49:34.434Z,99255.00
2019-01-28T22:52:07.906Z,99268.00
2019-01-28T22:54:36.810Z,99260.00
2019-01-28T22:57:07.156Z,99266.00
2019-01-28T22:59:37.786Z,99270.00
2019-01-28T23:02:08.830Z,99270.00
2019-01-28T23:04:39.181Z,99280.00
2019-01-28T23:07:09.470Z,99279.00
2019-01-28T23:09:39.699Z,99287.00
2019-01-28T23:12:10.012Z,99281.00
2019-01-28T23:14:40.418Z,99282.00
2019-01-28T23:17:10.854Z,99287.00
2019-01-28T23:19:41.099Z,99293.00
2019-01-28T23:22:16.498Z,99289.00
2019-01-28T23:24:43.640Z,99289.00
2019-01-28T23:27:14.028Z,99285.00
2019-01-28T23:29:44.564Z,99291.00
2019-01-28T23:32:15.027Z,99289.00
2019-01-28T23:34:45.404Z,99289.00
2019-01-28T23:37:15.878Z,99292.00
2019-01-28T23:39:46.126Z,99305.00
2019-01-28T23:42:16.812Z,99307.00
2019-01-28T23:44:47.486Z,99307.00
2019-01-28T23:47:19.080Z,99305.00
2019-01-28T23:49:49.542Z,99313.00
2019-01-28T23:52:24.737Z,99319.00
2019-01-28T23:54:54.831Z,99315.00
2019-01-28T23:57:25.500Z,99320.00
2019-01-28T23:59:57.451Z,99319.00
